createdAt,value
2022-12-31T00:00:38.962Z,4.16
2022-12-31T00:01:44.879Z,4.03
2022-12-31T00:02:59.623Z,4.05
2022-12-31T00:04:09.779Z,4.10
2022-12-31T00:06:42.070Z,4.05
2022-12-31T00:07:55.055Z,3.89
2022-12-31T00:09:07.937Z,3.93
2022-12-31T00:10:27.305Z,3.86
2022-12-31T00:11:32.691Z,3.90
2022-12-31T00:12:36.793Z,3.82
2022-12-31T00:13:47.472Z,3.81
2022-12-31T00:15:00.492Z,3.82
2022-12-31T00:16:20.323Z,3.81
2022-12-31T00:17:38.817Z,3.91
2022-12-31T00:18:51.040Z,3.81
2022-12-31T00:20:02.251Z,3.97
2022-12-31T00:21:11.305Z,3.88
2022-12-31T00:22:23.489Z,4.01
2022-12-31T00:24:04.737Z,3.79
2022-12-31T00:25:22.492Z,3.65
2022-12-31T00:26:30.963Z,3.66
2022-12-31T00:29:35.218Z,3.55
2022-12-31T00:30:46.158Z,3.55
2022-12-31T00:31:57.272Z,3.48
2022-12-31T00:35:02.784Z,3.43
2022-12-31T00:36:23.830Z,3.53
2022-12-31T00:37:57.719Z,3.63
2022-12-31T00:39:31.759Z,3.71
2022-12-31T00:40:45.004Z,3.88
2022-12-31T00:41:51.441Z,3.68
2022-12-31T00:43:05.005Z,3.68
2022-12-31T00:44:14.089Z,3.61
2022-12-31T00:45:46.277Z,3.61
2022-12-31T00:47:02.198Z,3.61
2022-12-31T00:48:12.281Z,3.52
2022-12-31T00:49:37.141Z,3.58
2022-12-31T00:50:53.478Z,3.62
2022-12-31T00:52:01.931Z,3.64
2022-12-31T00:54:36.639Z,3.73
2022-12-31T00:55:44.233Z,3.77
2022-12-31T00:58:06.607Z,3.91
2022-12-31T00:59:22.567Z,3.87
2022-12-31T01:00:31.260Z,3.88
2022-12-31T01:01:39.660Z,3.88
2022-12-31T01:03:33.381Z,3.84
2022-12-31T01:05:12.118Z,3.79
2022-12-31T01:06:46.884Z,3.86
2022-12-31T01:08:16.903Z,3.76
2022-12-31T01:09:32.295Z,3.85
2022-12-31T01:10:58.752Z,3.65
2022-12-31T01:12:53.327Z,3.73
2022-12-31T01:14:05.833Z,3.65
2022-12-31T01:15:16.005Z,3.56
2022-12-31T01:16:39.923Z,3.52
2022-12-31T01:18:07.510Z,3.57
2022-12-31T01:20:54.919Z,3.60
2022-12-31T01:22:30.119Z,3.58
2022-12-31T01:23:37.445Z,3.51
2022-12-31T01:24:44.736Z,3.55
2022-12-31T01:26:04.299Z,3.51
2022-12-31T01:27:20.257Z,3.57
2022-12-31T01:28:38.322Z,3.47
2022-12-31T01:29:43.809Z,3.59
2022-12-31T01:30:50.209Z,3.61
2022-12-31T01:31:54.759Z,3.56
2022-12-31T01:33:39.434Z,3.57
2022-12-31T01:34:46.765Z,3.68
2022-12-31T01:37:47.937Z,3.56
2022-12-31T01:38:54.808Z,3.51
2022-12-31T01:41:49.279Z,3.59
2022-12-31T01:45:29.018Z,3.54
2022-12-31T01:47:05.985Z,3.58
2022-12-31T01:48:33.999Z,3.45
2022-12-31T01:50:19.351Z,3.23
2022-12-31T01:51:59.423Z,3.01
2022-12-31T01:54:51.988Z,2.67
2022-12-31T01:56:02.329Z,2.65
2022-12-31T01:57:26.474Z,2.59
2022-12-31T01:58:51.843Z,2.68
2022-12-31T02:01:21.494Z,2.66
2022-12-31T02:02:44.996Z,2.59
2022-12-31T02:03:59.416Z,2.44
2022-12-31T02:05:46.779Z,2.44
2022-12-31T02:07:02.089Z,2.36
2022-12-31T02:08:13.318Z,2.24
2022-12-31T02:09:35.211Z,2.19
2022-12-31T02:12:39.175Z,2.07
2022-12-31T02:14:11.892Z,2.20
2022-12-31T02:15:29.384Z,2.22
2022-12-31T02:16:44.176Z,2.13
2022-12-31T02:17:50.629Z,2.21
2022-12-31T02:19:08.439Z,2.23
2022-12-31T02:20:34.468Z,2.33
2022-12-31T02:21:53.672Z,2.20
2022-12-31T02:23:34.812Z,2.14
2022-12-31T02:25:04.260Z,2.13
2022-12-31T02:26:45.644Z,2.13
2022-12-31T02:28:08.191Z,2.06
2022-12-31T02:29:37.047Z,2.28
2022-12-31T02:30:51.998Z,2.23
2022-12-31T02:32:00.995Z,2.20
2022-12-31T02:33:36.300Z,2.25
2022-12-31T02:34:55.455Z,2.30
2022-12-31T02:36:04.467Z,2.34
2022-12-31T02:37:19.929Z,2.33
2022-12-31T02:38:38.678Z,2.35
2022-12-31T02:39:44.536Z,2.37
2022-12-31T02:40:51.281Z,2.34
2022-12-31T02:42:04.004Z,2.38
2022-12-31T02:44:42.918Z,2.20
2022-12-31T02:45:53.335Z,2.18
2022-12-31T02:47:00.779Z,2.14
2022-12-31T02:48:08.289Z,2.14
2022-12-31T02:49:26.806Z,2.10
2022-12-31T02:50:30.167Z,2.09
2022-12-31T02:51:54.246Z,2.04
2022-12-31T02:53:25.379Z,2.07
2022-12-31T02:54:58.397Z,2.08
2022-12-31T02:56:19.498Z,2.05
2022-12-31T02:57:36.313Z,2.04
2022-12-31T02:59:42.752Z,2.09
2022-12-31T03:01:11.447Z,1.97
2022-12-31T03:02:24.265Z,1.98
2022-12-31T03:03:32.920Z,1.97
2022-12-31T03:04:36.499Z,2.03
2022-12-31T03:05:45.374Z,2.10
2022-12-31T03:06:57.253Z,2.16
2022-12-31T03:08:07.154Z,2.20
2022-12-31T03:09:25.476Z,2.37
2022-12-31T03:10:30.972Z,2.34
2022-12-31T03:12:04.787Z,2.23
2022-12-31T03:13:11.630Z,2.17
2022-12-31T03:14:20.138Z,2.13
2022-12-31T03:15:34.942Z,2.08
2022-12-31T03:16:41.187Z,1.96
2022-12-31T03:18:03.345Z,1.91
2022-12-31T03:19:27.162Z,1.96
2022-12-31T03:20:57.598Z,1.94
2022-12-31T03:22:29.999Z,1.96
2022-12-31T03:23:51.249Z,1.93
2022-12-31T03:25:26.882Z,2.06
2022-12-31T03:26:37.295Z,2.06
2022-12-31T03:27:44.907Z,2.22
2022-12-31T03:28:50.289Z,2.19
2022-12-31T03:30:12.469Z,2.09
2022-12-31T03:33:04.567Z,2.02
2022-12-31T03:34:14.959Z,2.04
2022-12-31T03:35:37.695Z,2.10
2022-12-31T03:36:48.926Z,2.28
2022-12-31T03:38:52.808Z,2.48
2022-12-31T03:40:01.115Z,2.57
2022-12-31T03:41:10.328Z,2.41
2022-12-31T03:42:19.378Z,2.45
2022-12-31T03:43:25.074Z,2.30
2022-12-31T03:44:32.313Z,2.29
2022-12-31T03:45:41.301Z,2.26
2022-12-31T03:46:51.643Z,2.14
2022-12-31T03:48:02.379Z,2.17
2022-12-31T03:49:06.574Z,2.50
2022-12-31T03:50:20.718Z,2.57
2022-12-31T03:51:32.324Z,2.65
2022-12-31T03:52:47.846Z,2.64
2022-12-31T03:54:16.294Z,2.57
2022-12-31T03:55:20.845Z,2.54
2022-12-31T03:56:25.522Z,2.44
2022-12-31T03:57:34.643Z,2.38
2022-12-31T03:58:39.341Z,2.36
2022-12-31T03:59:43.044Z,2.23
2022-12-31T04:00:58.772Z,2.37
2022-12-31T04:02:37.215Z,2.31
2022-12-31T04:03:52.884Z,2.36
2022-12-31T04:04:58.004Z,2.49
2022-12-31T04:06:01.293Z,2.53
2022-12-31T04:07:08.055Z,2.50
2022-12-31T04:08:18.556Z,2.49
2022-12-31T04:09:29.631Z,2.35
2022-12-31T04:10:37.263Z,2.27
2022-12-31T04:11:47.743Z,2.24
2022-12-31T04:12:57.259Z,2.36
2022-12-31T04:14:04.529Z,2.30
2022-12-31T04:15:21.461Z,2.23
2022-12-31T04:16:33.026Z,2.20
2022-12-31T04:17:56.787Z,2.36
2022-12-31T04:19:12.262Z,2.51
2022-12-31T04:20:21.653Z,2.44
2022-12-31T04:21:35.790Z,2.42
2022-12-31T04:22:41.935Z,2.35
2022-12-31T04:23:58.914Z,2.41
2022-12-31T04:25:04.585Z,2.51
2022-12-31T04:26:15.244Z,2.53
2022-12-31T04:27:19.430Z,2.49
2022-12-31T04:28:23.298Z,2.58
2022-12-31T04:29:31.032Z,2.51
2022-12-31T04:30:50.663Z,2.47
2022-12-31T04:32:06.389Z,2.38
2022-12-31T04:33:14.590Z,2.45
2022-12-31T04:34:24.549Z,2.54
2022-12-31T04:35:37.653Z,2.61
2022-12-31T04:36:43.268Z,2.59
2022-12-31T04:39:18.323Z,2.59
2022-12-31T04:40:29.520Z,2.60
2022-12-31T04:41:42.573Z,2.68
2022-12-31T04:42:50.919Z,2.58
2022-12-31T04:45:23.682Z,2.38
2022-12-31T04:46:34.624Z,2.40
2022-12-31T04:47:43.871Z,2.52
2022-12-31T04:48:55.462Z,2.47
2022-12-31T04:50:04.891Z,2.45
2022-12-31T04:51:16.560Z,2.66
2022-12-31T04:52:25.466Z,2.56
2022-12-31T04:53:31.312Z,2.56
2022-12-31T04:54:39.692Z,2.58
2022-12-31T04:55:43.181Z,2.59
2022-12-31T04:58:13.341Z,2.67
2022-12-31T04:59:26.895Z,2.81
2022-12-31T05:00:31.429Z,2.77
2022-12-31T05:02:03.085Z,2.78
2022-12-31T05:03:33.331Z,2.67
2022-12-31T05:04:42.788Z,2.76
2022-12-31T05:05:51.273Z,2.82
2022-12-31T05:07:11.960Z,2.78
2022-12-31T05:08:19.277Z,2.79
2022-12-31T05:10:40.692Z,2.76
2022-12-31T05:11:58.863Z,2.69
2022-12-31T05:13:07.576Z,2.67
2022-12-31T05:14:17.247Z,2.72
2022-12-31T05:15:27.694Z,2.85
2022-12-31T05:16:43.809Z,2.90
2022-12-31T05:18:23.113Z,2.74
2022-12-31T05:21:33.127Z,2.71
2022-12-31T05:22:41.665Z,2.82
2022-12-31T05:23:51.678Z,2.77
2022-12-31T05:25:15.358Z,2.75
2022-12-31T05:26:21.474Z,2.79
2022-12-31T05:28:47.662Z,2.73
2022-12-31T05:29:51.043Z,2.88
2022-12-31T05:31:02.731Z,2.65
2022-12-31T05:32:12.750Z,2.70
2022-12-31T05:33:26.282Z,2.57
2022-12-31T05:34:40.512Z,2.67
2022-12-31T05:35:50.751Z,2.72
2022-12-31T05:36:58.066Z,2.80
2022-12-31T05:38:18.880Z,2.82
2022-12-31T05:44:33.804Z,2.75
2022-12-31T05:45:45.673Z,2.82
2022-12-31T05:47:08.629Z,2.94
2022-12-31T05:48:25.427Z,2.95
2022-12-31T05:49:32.967Z,2.91
2022-12-31T05:50:38.964Z,2.96
2022-12-31T05:51:48.159Z,2.91
2022-12-31T05:53:13.435Z,2.98
2022-12-31T05:54:45.268Z,2.99
2022-12-31T05:55:59.785Z,2.76
2022-12-31T05:57:24.521Z,2.92
2022-12-31T05:58:35.291Z,2.94
2022-12-31T05:59:52.371Z,2.79
2022-12-31T06:01:14.494Z,2.71
2022-12-31T06:02:47.424Z,2.71
2022-12-31T06:04:06.551Z,2.64
2022-12-31T06:05:26.592Z,2.89
2022-12-31T06:06:37.973Z,2.93
2022-12-31T06:07:46.053Z,2.86
2022-12-31T06:08:59.751Z,2.76
2022-12-31T06:10:15.868Z,2.86
2022-12-31T06:12:03.590Z,2.94
2022-12-31T09:02:59.909Z,3.58
2022-12-31T09:04:24.462Z,3.75
2022-12-31T09:06:17.507Z,3.58
2022-12-31T09:09:44.780Z,3.28
2022-12-31T09:11:11.222Z,3.50
2022-12-31T09:12:37.293Z,3.54
2022-12-31T09:13:42.251Z,3.48
2022-12-31T09:14:45.607Z,3.49
2022-12-31T09:16:20.638Z,3.43
2022-12-31T09:17:36.653Z,3.49
2022-12-31T09:18:41.996Z,3.41
2022-12-31T09:19:44.185Z,3.44
2022-12-31T09:22:19.920Z,3.55
2022-12-31T09:23:43.236Z,3.57
2022-12-31T09:25:02.305Z,3.51
2022-12-31T09:26:09.694Z,3.47
2022-12-31T09:27:52.565Z,3.41
2022-12-31T09:28:58.280Z,3.58
2022-12-31T09:30:18.270Z,3.59
2022-12-31T09:31:36.683Z,3.56
2022-12-31T09:32:48.600Z,3.53
2022-12-31T09:35:28.407Z,3.64
2022-12-31T09:38:37.859Z,3.69
2022-12-31T09:39:50.276Z,3.54
2022-12-31T09:41:15.061Z,3.54
2022-12-31T09:42:52.316Z,3.38
2022-12-31T09:44:13.857Z,3.35
2022-12-31T09:45:40.572Z,3.31
2022-12-31T09:46:50.649Z,3.39
2022-12-31T09:48:40.356Z,3.42
2022-12-31T09:49:45.002Z,3.56
2022-12-31T09:51:06.326Z,3.61
2022-12-31T09:52:19.300Z,3.59
2022-12-31T09:54:11.660Z,3.60
2022-12-31T09:55:33.628Z,3.74
2022-12-31T09:56:43.357Z,3.75
2022-12-31T09:58:13.840Z,3.93
2022-12-31T10:00:09.972Z,3.79
2022-12-31T10:01:24.026Z,3.68
2022-12-31T10:02:47.692Z,3.57
2022-12-31T10:04:18.291Z,3.75
2022-12-31T10:07:29.972Z,3.84
2022-12-31T10:09:09.707Z,3.94
2022-12-31T10:10:41.773Z,4.05
2022-12-31T10:11:51.179Z,4.07
2022-12-31T10:13:21.566Z,3.92
2022-12-31T10:16:57.539Z,4.07
2022-12-31T10:18:19.016Z,4.06
2022-12-31T10:19:43.305Z,4.01
2022-12-31T10:21:36.384Z,3.98
2022-12-31T10:23:00.118Z,3.76
2022-12-31T10:24:22.282Z,3.82
2022-12-31T10:25:38.784Z,3.83
2022-12-31T10:26:59.069Z,3.80
2022-12-31T10:28:11.926Z,3.80
2022-12-31T10:29:19.791Z,3.78
2022-12-31T10:30:24.576Z,3.89
2022-12-31T10:31:34.841Z,3.88
2022-12-31T10:32:46.402Z,3.87
2022-12-31T10:34:01.760Z,3.93
2022-12-31T10:35:19.034Z,3.88
2022-12-31T10:36:31.173Z,3.87
2022-12-31T10:37:50.760Z,3.71
2022-12-31T10:39:29.094Z,3.88
2022-12-31T10:40:49.143Z,3.99
2022-12-31T10:42:17.913Z,3.92
2022-12-31T10:45:56.964Z,3.82
2022-12-31T10:49:28.862Z,4.08
2022-12-31T10:50:59.312Z,4.10
2022-12-31T10:52:41.594Z,4.00
2022-12-31T10:57:07.658Z,3.83
2022-12-31T11:02:49.491Z,4.01
2022-12-31T11:04:11.504Z,3.79
2022-12-31T11:06:01.943Z,3.73
2022-12-31T11:07:41.495Z,3.91
2022-12-31T11:08:58.789Z,4.06
2022-12-31T11:12:55.282Z,3.87
2022-12-31T11:14:33.630Z,3.72
2022-12-31T11:16:09.354Z,3.87
2022-12-31T11:17:21.127Z,3.97
2022-12-31T11:18:58.126Z,3.80
2022-12-31T11:20:36.988Z,3.92
2022-12-31T11:22:05.678Z,3.72
2022-12-31T11:23:40.857Z,3.79
2022-12-31T11:25:04.341Z,3.83
2022-12-31T11:26:37.135Z,3.76
2022-12-31T11:27:59.018Z,3.86
2022-12-31T11:29:12.654Z,3.74
2022-12-31T11:30:51.937Z,3.92
2022-12-31T11:32:09.625Z,3.76
2022-12-31T11:33:40.633Z,3.82
2022-12-31T11:34:55.465Z,4.01
2022-12-31T11:36:25.390Z,3.97
2022-12-31T11:42:48.038Z,3.86
2022-12-31T11:44:17.866Z,3.90
2022-12-31T11:45:46.936Z,3.77
2022-12-31T11:46:55.649Z,3.66
2022-12-31T11:48:32.930Z,3.74
2022-12-31T11:49:55.977Z,3.92
2022-12-31T11:51:14.864Z,3.90
2022-12-31T11:52:33.841Z,4.02
2022-12-31T11:53:59.995Z,3.86
2022-12-31T11:55:10.952Z,3.82
2022-12-31T11:56:22.891Z,3.73
2022-12-31T11:59:36.337Z,3.95
2022-12-31T12:00:49.004Z,3.93
2022-12-31T12:02:01.182Z,3.81
2022-12-31T12:03:08.071Z,3.83
2022-12-31T12:04:36.377Z,3.65
2022-12-31T12:05:52.046Z,3.75
2022-12-31T12:07:31.011Z,3.81
2022-12-31T12:08:44.906Z,3.77
2022-12-31T12:11:59.826Z,3.65
2022-12-31T12:13:16.608Z,3.70
2022-12-31T12:14:43.388Z,3.76
2022-12-31T12:15:57.013Z,3.72
2022-12-31T12:18:03.653Z,3.87
2022-12-31T12:35:50.225Z,3.71
2022-12-31T13:19:24.094Z,3.77
2022-12-31T13:20:42.876Z,3.83
2022-12-31T13:25:07.788Z,3.60
2022-12-31T13:26:34.808Z,3.68
2022-12-31T13:29:36.472Z,3.78
2022-12-31T13:30:51.277Z,3.73
2022-12-31T13:32:07.530Z,3.66
2022-12-31T13:33:45.264Z,3.76
2022-12-31T13:41:47.793Z,3.81
2022-12-31T13:43:35.225Z,3.67
2022-12-31T13:45:50.103Z,3.76
2022-12-31T13:47:54.068Z,3.41
2022-12-31T13:49:20.576Z,3.58
2022-12-31T13:51:18.713Z,3.49
2022-12-31T13:58:56.699Z,3.66
2022-12-31T14:05:57.870Z,3.68
2022-12-31T14:07:36.436Z,3.80
2022-12-31T14:08:58.445Z,3.82
2022-12-31T14:11:10.238Z,3.91
2022-12-31T14:33:38.503Z,3.67
2022-12-31T14:35:02.483Z,3.74
2022-12-31T14:45:31.961Z,3.82
2022-12-31T14:48:04.317Z,3.82
2022-12-31T15:00:03.996Z,3.60
2022-12-31T15:01:45.775Z,3.67
2022-12-31T15:03:27.408Z,3.78
2022-12-31T15:04:43.825Z,3.88
2022-12-31T15:07:22.465Z,3.87
2022-12-31T15:10:27.315Z,3.91
2022-12-31T15:11:49.596Z,3.86
2022-12-31T15:13:13.372Z,3.92
2022-12-31T15:14:38.138Z,3.84
2022-12-31T15:16:05.002Z,3.98
2022-12-31T15:17:50.771Z,3.86
2022-12-31T15:19:18.612Z,3.83
2022-12-31T15:20:36.025Z,3.86
2022-12-31T15:27:23.576Z,3.97
2022-12-31T15:28:34.070Z,3.92
2022-12-31T15:29:45.249Z,3.80
2022-12-31T15:30:50.218Z,3.87
2022-12-31T15:31:53.333Z,3.94
2022-12-31T15:33:01.481Z,3.93
2022-12-31T15:34:27.063Z,3.92
2022-12-31T15:35:32.076Z,3.95
2022-12-31T15:37:31.887Z,4.00
2022-12-31T15:39:05.672Z,3.85
2022-12-31T15:40:35.233Z,3.86
2022-12-31T21:05:07.721Z,3.02
